createdAt,value
2023-03-07T04:48:49.487Z,6.83
2023-03-07T04:53:58.061Z,6.71
2023-03-07T04:58:27.618Z,6.67
2023-03-07T05:58:40.617Z,6.26
2023-03-07T08:11:35.217Z,8.89
2023-03-07T08:15:49.469Z,9.04
2023-03-07T08:20:06.064Z,9.13
2023-03-07T08:24:54.968Z,9.04
2023-03-07T08:29:57.346Z,9.20
2023-03-07T08:43:04.308Z,9.74
2023-03-07T08:47:22.835Z,9.93
2023-03-07T08:51:32.124Z,10.20
2023-03-07T08:55:51.558Z,10.89
2023-03-07T09:00:03.827Z,11.43
2023-03-07T09:04:12.975Z,11.98
2023-03-07T09:08:23.818Z,12.26
2023-03-07T09:12:33.603Z,12.47
2023-03-07T09:16:43.161Z,12.51
2023-03-07T09:20:50.444Z,12.58
2023-03-07T09:25:02.087Z,12.40
2023-03-07T09:29:11.558Z,12.25
2023-03-07T09:33:17.428Z,12.22
2023-03-07T09:37:22.142Z,12.02
2023-03-07T09:41:34.908Z,11.96
2023-03-07T09:46:02.836Z,12.16
2023-03-07T09:50:28.350Z,12.52
2023-03-07T09:54:52.672Z,13.06
2023-03-07T09:59:25.820Z,13.62
2023-03-07T10:03:45.268Z,13.93
2023-03-07T10:13:49.671Z,13.84
2023-03-07T10:18:25.384Z,13.67
2023-03-07T10:22:50.872Z,13.80
2023-03-07T10:27:09.596Z,13.66
2023-03-07T10:31:41.525Z,13.72
2023-03-07T10:37:08.525Z,13.66
2023-03-07T10:41:23.575Z,13.87
2023-03-07T10:45:35.621Z,13.86
2023-03-07T10:54:41.060Z,13.21
2023-03-07T10:59:06.927Z,13.23
2023-03-07T11:03:51.879Z,13.23
2023-03-07T11:08:00.972Z,13.07
2023-03-07T11:16:31.527Z,13.64
2023-03-07T11:20:54.609Z,14.12
2023-03-07T11:25:04.509Z,14.54
2023-03-07T11:29:18.213Z,14.31
2023-03-07T11:34:07.719Z,14.20
2023-03-07T11:38:45.429Z,14.29
2023-03-07T11:43:04.292Z,14.48
2023-03-07T11:47:31.423Z,14.34
2023-03-07T11:52:01.696Z,14.27
2023-03-07T11:56:19.431Z,14.25
2023-03-07T12:00:25.473Z,14.08
2023-03-07T12:05:12.349Z,14.08
2023-03-07T12:09:36.543Z,14.05
2023-03-07T12:14:19.116Z,13.96
2023-03-07T12:19:05.791Z,13.74
2023-03-07T12:23:54.516Z,13.49
2023-03-07T12:28:55.205Z,13.91
2023-03-07T12:33:14.052Z,14.02
2023-03-07T12:37:41.289Z,14.27
2023-03-07T12:42:14.576Z,14.47
2023-03-07T12:46:57.851Z,14.41
2023-03-07T12:51:13.982Z,14.35
2023-03-07T12:55:33.113Z,14.53
2023-03-07T13:00:20.180Z,14.64
2023-03-07T13:08:52.086Z,15.49
2023-03-07T13:13:01.107Z,15.58
2023-03-07T13:17:45.879Z,15.97
2023-03-07T13:26:40.598Z,15.11
2023-03-07T13:31:12.183Z,14.87
2023-03-07T13:35:53.093Z,15.07
2023-03-07T13:40:12.570Z,15.18
2023-03-07T13:44:46.658Z,14.76
2023-03-07T13:49:03.787Z,14.65
2023-03-07T13:53:21.484Z,14.75
2023-03-07T13:57:34.071Z,14.79
2023-03-07T14:01:53.669Z,14.66
2023-03-07T14:06:08.553Z,14.69
2023-03-07T14:15:25.918Z,14.77
2023-03-07T14:19:55.025Z,14.89
2023-03-07T14:25:00.616Z,14.64
2023-03-07T14:33:48.281Z,14.43
2023-03-07T14:38:27.796Z,14.32
2023-03-07T14:43:05.780Z,14.42
2023-03-07T14:47:32.577Z,14.30
2023-03-07T14:51:42.369Z,14.17
2023-03-07T14:55:59.040Z,14.12
2023-03-07T15:00:20.897Z,14.05
2023-03-07T15:04:29.186Z,14.12
2023-03-07T15:08:44.556Z,14.27
2023-03-07T15:13:49.036Z,14.68
2023-03-07T15:18:05.824Z,14.67
2023-03-07T15:22:22.547Z,14.67
2023-03-07T15:26:31.357Z,14.61
2023-03-07T15:35:09.952Z,14.71
2023-03-07T15:39:37.279Z,14.85
2023-03-07T15:43:41.355Z,14.85
2023-03-07T15:48:10.857Z,14.56
2023-03-07T15:52:28.576Z,14.36
2023-03-07T15:56:41.736Z,14.26
2023-03-07T16:00:44.350Z,14.08
2023-03-07T16:04:49.166Z,14.08
2023-03-07T16:08:52.241Z,14.25
2023-03-07T16:12:54.929Z,14.34
2023-03-07T16:17:00.395Z,14.25
2023-03-07T16:21:03.308Z,14.41
2023-03-07T16:25:08.014Z,14.72
2023-03-07T16:29:19.712Z,15.06
2023-03-07T16:33:22.421Z,15.27
2023-03-07T16:37:24.812Z,15.12
2023-03-07T16:41:28.055Z,14.96
2023-03-07T16:45:31.942Z,14.54
2023-03-07T16:49:34.947Z,14.09
2023-03-07T16:53:37.542Z,13.78
2023-03-07T16:57:41.905Z,13.48
2023-03-07T17:01:49.333Z,13.20
2023-03-07T17:05:51.918Z,12.98
2023-03-07T17:09:56.583Z,12.78
2023-03-07T17:14:02.824Z,12.62
2023-03-07T17:18:05.018Z,12.46
2023-03-07T17:22:07.214Z,12.27
2023-03-07T17:26:18.642Z,12.04
2023-03-07T17:30:23.929Z,11.84
2023-03-07T17:34:30.482Z,11.71
2023-03-07T17:38:32.860Z,11.62
2023-03-07T17:42:35.036Z,11.55
2023-03-07T17:46:40.861Z,11.48
2023-03-07T17:50:43.247Z,11.51
2023-03-07T17:54:46.046Z,11.53
2023-03-07T17:58:48.168Z,11.49
2023-03-07T18:02:51.002Z,11.41
2023-03-07T18:06:54.839Z,11.37
2023-03-07T18:11:05.018Z,11.38
2023-03-07T18:15:12.224Z,11.37
2023-03-07T18:19:25.647Z,11.35
2023-03-07T18:23:28.706Z,11.28
2023-03-07T18:27:35.581Z,11.27
2023-03-07T18:31:39.465Z,11.25
2023-03-07T18:35:43.684Z,11.22
2023-03-07T18:39:46.871Z,11.12
2023-03-07T18:43:50.095Z,11.10
2023-03-07T18:47:52.736Z,11.09
2023-03-07T18:51:55.743Z,11.00
2023-03-07T18:56:06.200Z,10.95
2023-03-07T19:00:12.589Z,10.77
2023-03-07T19:04:18.741Z,10.65
2023-03-07T19:08:24.213Z,10.54
2023-03-07T19:12:26.793Z,10.39
2023-03-07T19:16:30.553Z,10.24
2023-03-07T19:20:34.428Z,10.15
2023-03-07T19:24:38.897Z,10.04
2023-03-07T19:28:43.085Z,10.01
2023-03-07T19:32:46.429Z,10.01
2023-03-07T19:36:54.151Z,10.03
2023-03-07T19:41:07.528Z,10.04
2023-03-07T19:45:12.619Z,10.05
2023-03-07T19:49:18.146Z,10.00
2023-03-07T19:53:22.899Z,9.98
2023-03-07T19:57:40.373Z,9.91
2023-03-07T20:01:44.964Z,9.78
2023-03-07T20:06:03.080Z,9.70
2023-03-07T20:10:14.433Z,9.56
2023-03-07T20:14:21.464Z,9.47
2023-03-07T20:18:27.465Z,9.43
2023-03-07T20:22:35.236Z,9.38
2023-03-07T20:26:41.762Z,9.43
2023-03-07T20:31:02.947Z,9.54
2023-03-07T20:35:14.482Z,9.59
2023-03-07T20:39:27.373Z,9.57
2023-03-07T20:48:39.578Z,9.77
2023-03-07T20:52:46.797Z,9.82
2023-03-07T20:56:59.129Z,9.97
2023-03-07T21:01:09.350Z,10.05
2023-03-07T21:09:36.837Z,9.94
2023-03-07T21:14:17.717Z,9.97
2023-03-07T21:18:22.335Z,10.01
2023-03-07T21:22:24.702Z,9.97
2023-03-07T21:26:33.251Z,9.57
2023-03-07T21:30:39.162Z,9.26
2023-03-07T21:34:41.538Z,9.08
2023-03-07T21:38:47.261Z,9.14
2023-03-07T21:42:52.350Z,9.14
2023-03-07T21:46:55.602Z,9.20
2023-03-07T21:50:59.861Z,9.19
2023-03-07T21:55:02.386Z,9.14
2023-03-07T21:59:05.300Z,9.18
2023-03-07T22:03:07.908Z,9.26
2023-03-07T22:07:10.545Z,9.21
2023-03-07T22:11:13.807Z,9.10
2023-03-07T22:15:16.133Z,9.33
2023-03-07T22:19:18.675Z,9.38
2023-03-07T22:23:21.567Z,9.24
2023-03-07T22:27:23.820Z,9.27
2023-03-07T22:31:26.425Z,9.05
2023-03-07T22:35:28.770Z,9.00
2023-03-07T22:39:31.825Z,9.11
2023-03-07T22:43:35.350Z,9.03
2023-03-07T22:47:37.682Z,8.98
2023-03-07T22:51:40.141Z,8.99
2023-03-07T22:55:43.564Z,9.02
2023-03-07T22:59:47.980Z,9.00
2023-03-07T23:03:51.343Z,8.95
2023-03-07T23:07:54.499Z,8.83
2023-03-07T23:11:56.733Z,8.67
2023-03-07T23:15:58.937Z,8.66
2023-03-07T23:20:01.309Z,8.78
2023-03-07T23:24:04.276Z,8.68
2023-03-07T23:28:06.478Z,8.65
2023-03-07T23:32:09.489Z,8.73
2023-03-07T23:36:12.856Z,8.81
2023-03-07T23:40:15.244Z,8.98
2023-03-07T23:44:17.391Z,9.05
2023-03-07T23:48:19.591Z,9.15
2023-03-07T23:52:23.048Z,9.24
2023-03-07T23:56:25.226Z,9.20
